Time;durP1;ratioP1;P1;durP2;ratioP2;P2;SDS_P1;SDS_P2;PMS_P1;PMS_P2;Temp;Humidity;BMP_temperature;BMP_pressure;BME280_temperature;BME280_humidity;BME280_pressure;Samples;Min_cycle;Max_cycle;Signal;HPM_P1;HPM_P2
2023/09/26 00:01:30;;;;;;;5.67;4.10;;;;;;;;;;6316692;22;20403;-78
2023/09/26 00:03:58;;;;;;;6.07;4.50;;;;;;;;;;6321362;22;20443;-78
2023/09/26 00:06:27;;;;;;;7.33;3.90;;;;;;;;;;6325863;22;20407;-77
2023/09/26 00:09:01;;;;;;;4.50;3.83;;;;;;;;;;6313963;22;20514;-77
2023/09/26 00:11:37;;;;;;;7.00;4.47;;;;;;;;;;6314192;22;20431;-77
2023/09/26 00:14:10;;;;;;;7.90;3.77;;;;;;;;;;6314668;22;20451;-77
2023/09/26 00:16:57;;;;;;;9.63;5.10;;;;;;;;;;6290407;22;20444;-78
2023/09/26 00:19:27;;;;;;;5.97;4.40;;;;;;;;;;6320039;22;20405;-78
2023/09/26 00:24:52;;;;;;;8.23;4.50;;;;;;;;;;6321219;22;20439;-77
2023/09/26 00:27:29;;;;;;;5.27;4.60;;;;;;;;;;6322408;22;20403;-77
2023/09/26 00:29:59;;;;;;;9.10;4.10;;;;;;;;;;6318819;22;20419;-78
2023/09/26 00:32:32;;;;;;;7.20;4.93;;;;;;;;;;6328875;22;20451;-78
2023/09/26 00:35:04;;;;;;;8.80;4.77;;;;;;;;;;6320425;22;20438;-77
2023/09/26 00:37:36;;;;;;;6.00;4.30;;;;;;;;;;6293566;22;20483;-78
2023/09/26 00:40:15;;;;;;;6.60;5.00;;;;;;;;;;6321914;22;20422;-78
2023/09/26 00:42:49;;;;;;;5.40;4.40;;;;;;;;;;6317819;22;20411;-77
2023/09/26 00:45:17;;;;;;;6.20;4.30;;;;;;;;;;6319595;22;20406;-77
2023/09/26 00:47:50;;;;;;;6.23;4.70;;;;;;;;;;6319184;22;20381;-77
2023/09/26 00:50:25;;;;;;;4.37;3.83;;;;;;;;;;6314908;22;20419;-77
2023/09/26 00:52:55;;;;;;;7.10;4.13;;;;;;;;;;6315869;22;20424;-77
2023/09/26 00:55:25;;;;;;;7.37;4.80;;;;;;;;;;6289908;22;20419;-77
2023/09/26 00:58:02;;;;;;;4.53;3.77;;;;;;;;;;6313672;22;20415;-77
2023/09/26 01:00:32;;;;;;;8.37;4.57;;;;;;;;;;6315532;22;20419;-77
2023/09/26 01:02:59;;;;;;;5.83;5.30;;;;;;;;;;6316085;22;20415;-77
2023/09/26 01:05:28;;;;;;;5.27;4.47;;;;;;;;;;6315949;22;20421;-77
2023/09/26 01:07:59;;;;;;;5.40;4.53;;;;;;;;;;6314170;22;20408;-77
2023/09/26 01:10:27;;;;;;;6.73;5.10;;;;;;;;;;6320264;22;20438;-77
2023/09/26 01:13:00;;;;;;;6.00;4.80;;;;;;;;;;6316367;22;20387;-77
2023/09/26 01:15:38;;;;;;;8.73;5.00;;;;;;;;;;6283574;22;20448;-78
2023/09/26 01:18:09;;;;;;;5.73;5.00;;;;;;;;;;6287186;22;20473;-77
2023/09/26 01:20:43;;;;;;;9.17;4.40;;;;;;;;;;6288498;22;20416;-77
2023/09/26 01:23:14;;;;;;;5.37;4.17;;;;;;;;;;6285798;22;20451;-77
2023/09/26 01:25:47;;;;;;;4.27;3.87;;;;;;;;;;6284641;22;20941;-77
2023/09/26 01:28:18;;;;;;;6.17;4.50;;;;;;;;;;6289031;22;20840;-77
2023/09/26 01:30:51;;;;;;;7.63;4.63;;;;;;;;;;6286566;22;20401;-78
2023/09/26 01:33:21;;;;;;;8.00;3.77;;;;;;;;;;6284141;22;20761;-78
2023/09/26 01:35:52;;;;;;;6.70;4.40;;;;;;;;;;6287402;22;20401;-77
2023/09/26 01:38:25;;;;;;;5.20;3.83;;;;;;;;;;6300366;22;20511;-77
2023/09/26 01:43:34;;;;;;;5.17;4.27;;;;;;;;;;6344534;22;20481;-77
2023/09/26 01:46:06;;;;;;;6.23;5.40;;;;;;;;;;6350369;22;20420;-78
2023/09/26 01:48:43;;;;;;;4.53;4.00;;;;;;;;;;6350171;22;20459;-79
2023/09/26 01:51:11;;;;;;;4.93;4.00;;;;;;;;;;6348331;22;20902;-78
2023/09/26 01:53:45;;;;;;;5.50;3.80;;;;;;;;;;6347605;22;20490;-78
2023/09/26 01:56:36;;;;;;;9.47;5.10;;;;;;;;;;6322235;22;20682;-77
2023/09/26 01:59:07;;;;;;;6.80;3.80;;;;;;;;;;6346570;22;20796;-76
2023/09/26 02:01:39;;;;;;;5.07;3.40;;;;;;;;;;6350791;22;20397;-77
2023/09/26 02:04:29;;;;;;;5.23;4.00;;;;;;;;;;6348822;22;20541;-77
2023/09/26 02:06:57;;;;;;;5.23;4.27;;;;;;;;;;6352012;22;20418;-79
2023/09/26 02:09:27;;;;;;;6.57;3.97;;;;;;;;;;6350743;22;20450;-77
2023/09/26 02:12:07;;;;;;;5.50;3.77;;;;;;;;;;6348124;22;20800;-78
2023/09/26 02:14:43;;;;;;;5.27;3.60;;;;;;;;;;6346871;22;20771;-77
2023/09/26 02:17:15;;;;;;;4.70;4.27;;;;;;;;;;6347656;22;20429;-77
2023/09/26 02:19:48;;;;;;;5.67;3.70;;;;;;;;;;6351016;22;20431;-78
2023/09/26 02:22:30;;;;;;;5.30;3.90;;;;;;;;;;6320982;22;20505;-77
2023/09/26 02:24:59;;;;;;;6.43;3.43;;;;;;;;;;6349909;22;20453;-78
2023/09/26 02:27:28;;;;;;;6.70;3.30;;;;;;;;;;6346971;22;20501;-76
2023/09/26 02:32:55;;;;;;;5.47;3.73;;;;;;;;;;6348343;22;20394;-77
2023/09/26 02:35:25;;;;;;;4.60;3.70;;;;;;;;;;6320909;22;20416;-78
2023/09/26 02:37:56;;;;;;;4.33;3.70;;;;;;;;;;6347454;22;20659;-76
2023/09/26 02:53:31;;;;;;;4.70;3.70;;;;;;;;;;6338486;22;20562;-76
2023/09/26 02:56:00;;;;;;;4.63;3.80;;;;;;;;;;6348712;22;20402;-78
2023/09/26 02:58:49;;;;;;;5.93;4.57;;;;;;;;;;6324962;22;20435;-77
2023/09/26 03:01:28;;;;;;;4.13;3.73;;;;;;;;;;6349253;22;20402;-77
2023/09/26 03:04:03;;;;;;;5.70;4.87;;;;;;;;;;6352940;22;20498;-77
2023/09/26 03:06:48;;;;;;;6.67;5.00;;;;;;;;;;6350295;22;20515;-78
2023/09/26 03:09:25;;;;;;;5.40;3.97;;;;;;;;;;6351552;22;20410;-78
2023/09/26 03:11:59;;;;;;;5.80;4.13;;;;;;;;;;6349661;22;20371;-77
2023/09/26 03:14:27;;;;;;;6.47;3.90;;;;;;;;;;6346982;22;20444;-78
2023/09/26 03:17:05;;;;;;;5.40;4.53;;;;;;;;;;6349908;22;20440;-79
2023/09/26 03:19:34;;;;;;;8.83;4.60;;;;;;;;;;6350916;22;20489;-80
2023/09/26 03:27:54;;;;;;;6.50;4.00;;;;;;;;;;6226554;22;20460;-78
2023/09/26 03:30:37;;;;;;;4.67;3.80;;;;;;;;;;6339112;22;20457;-78
2023/09/26 03:36:20;;;;;;;4.87;4.03;;;;;;;;;;6351676;22;20508;-77
2023/09/26 03:38:52;;;;;;;8.13;4.47;;;;;;;;;;6265154;22;20449;-77
2023/09/26 03:53:07;;;;;;;5.73;4.73;;;;;;;;;;6206497;22;20492;-77
2023/09/26 05:10:54;;;;;;;;;;;;;;;;;;;;;
2023/09/26 05:13:47;;;;;;;6.30;5.70;;;;;;;;;;6284676;22;20407;-76
2023/09/26 05:16:29;;;;;;;8.20;5.70;;;;;;;;;;6284663;22;20420;-76
2023/09/26 05:24:59;;;;;;;6.13;5.20;;;;;;;;;;6312945;22;20192;-79
2023/09/26 05:27:50;;;;;;;7.87;6.10;;;;;;;;;;6325179;22;20789;-77
2023/09/26 05:30:49;;;;;;;11.67;5.70;;;;;;;;;;6319284;22;20423;-78
2023/09/26 05:36:11;;;;;;;8.87;5.77;;;;;;;;;;6315220;22;20423;-77
2023/09/26 05:38:42;;;;;;;7.00;5.87;;;;;;;;;;6319172;22;20416;-77
2023/09/26 05:51:44;;;;;;;11.50;6.90;;;;;;;;;;6346705;22;20462;-79
2023/09/26 05:56:56;;;;;;;8.43;6.03;;;;;;;;;;6377192;22;20409;-77
2023/09/26 05:59:29;;;;;;;10.30;6.50;;;;;;;;;;6377294;22;20421;-78
2023/09/26 06:04:54;;;;;;;7.27;6.20;;;;;;;;;;6328260;22;20509;-76
2023/09/26 18:19:15;;;;;;;8.80;6.50;;;;;;;;;;6310032;22;20399;-78
2023/09/26 21:14:55;;;;;;;7.10;6.40;;;;;;;;;;6321861;22;20433;-78
2023/09/26 21:21:23;;;;;;;9.90;6.97;;;;;;;;;;6369112;22;20436;-77
2023/09/26 22:01:07;;;;;;;8.97;7.87;;;;;;;;;;6323244;22;20432;-78
2023/09/26 22:32:06;;;;;;;8.50;7.40;;;;;;;;;;6265592;22;20511;-78
2023/09/26 22:34:37;;;;;;;9.77;8.13;;;;;;;;;;6347663;22;20447;-78
2023/09/26 22:40:09;;;;;;;8.23;6.70;;;;;;;;;;6349710;22;20413;-78
2023/09/26 22:45:20;;;;;;;7.23;6.47;;;;;;;;;;6251209;22;20874;-77
2023/09/26 22:48:05;;;;;;;8.73;7.93;;;;;;;;;;6344851;22;20503;-77
2023/09/26 22:50:38;;;;;;;7.43;6.70;;;;;;;;;;6346217;22;20425;-76
2023/09/26 22:55:41;;;;;;;11.07;6.53;;;;;;;;;;6351477;22;20871;-77
2023/09/26 22:58:16;;;;;;;9.20;7.00;;;;;;;;;;6350805;22;20194;-76
2023/09/26 23:01:01;;;;;;;10.10;7.60;;;;;;;;;;6354343;22;20418;-77
2023/09/26 23:03:38;;;;;;;9.20;7.70;;;;;;;;;;6349000;22;20438;-76
2023/09/26 23:06:22;;;;;;;12.23;8.53;;;;;;;;;;6323260;22;20430;-77
2023/09/26 23:09:06;;;;;;;7.40;6.23;;;;;;;;;;6355086;22;20394;-78
2023/09/26 23:11:46;;;;;;;9.60;7.73;;;;;;;;;;6354087;22;20445;-77
2023/09/26 23:17:19;;;;;;;7.63;6.93;;;;;;;;;;6349524;22;20956;-77
2023/09/26 23:20:14;;;;;;;8.67;7.17;;;;;;;;;;6326070;22;20418;-78
2023/09/26 23:23:03;;;;;;;9.03;8.03;;;;;;;;;;6352108;22;20469;-79
2023/09/26 23:26:08;;;;;;;7.70;6.73;;;;;;;;;;6299249;22;20907;-78
2023/09/26 23:28:52;;;;;;;9.63;7.20;;;;;;;;;;6380527;22;20872;-77
2023/09/26 23:31:45;;;;;;;7.53;6.67;;;;;;;;;;6385120;22;20522;-77
2023/09/26 23:34:18;;;;;;;8.27;7.20;;;;;;;;;;6382598;22;20841;-78
2023/09/26 23:37:21;;;;;;;9.70;7.77;;;;;;;;;;6381850;22;20386;-77
2023/09/26 23:39:59;;;;;;;8.90;8.00;;;;;;;;;;6383943;22;20396;-77
